Time;durP1;ratioP1;P1;durP2;ratioP2;P2;SDS_P1;SDS_P2;PMS_P1;PMS_P2;Temp;Humidity;BMP_temperature;BMP_pressure;BME280_temperature;BME280_humidity;BME280_pressure;Samples;Min_cycle;Max_cycle;Signal;HPM_P1;HPM_P2
2022/01/31 00:00:20;;;;;;;;;;;0.00;80.70;;;;;;5021202;28;93953;-44
2022/01/31 00:02:47;;;;;;;;;;;0.00;80.70;;;;;;5021659;28;91420;-43
2022/01/31 00:05:13;;;;;;;;;;;0.10;80.80;;;;;;5021412;28;93003;-44
2022/01/31 00:07:38;;;;;;;;;;;0.10;80.80;;;;;;5020896;28;94720;-43
2022/01/31 00:10:07;;;;;;;;;;;0.10;80.70;;;;;;5020782;28;93114;-43
2022/01/31 00:12:48;;;;;;;;;;;0.00;80.70;;;;;;5021338;28;94719;-44
2022/01/31 00:15:13;;;;;;;;;;;0.10;80.80;;;;;;5020681;28;94375;-43
2022/01/31 00:17:39;;;;;;;;;;;0.10;80.80;;;;;;5021183;28;92166;-44
2022/01/31 00:20:05;;;;;;;;;;;0.10;80.90;;;;;;5023776;28;93558;-44
2022/01/31 00:22:30;;;;;;;;;;;0.00;80.80;;;;;;5021260;28;92187;-44
2022/01/31 00:24:56;;;;;;;;;;;0.10;81.00;;;;;;5021155;28;93289;-44
2022/01/31 00:27:21;;;;;;;;;;;0.10;81.10;;;;;;5021051;28;93688;-43
2022/01/31 00:29:47;;;;;;;;;;;0.10;81.20;;;;;;5020916;28;92153;-44
2022/01/31 00:32:12;;;;;;;;;;;0.10;81.00;;;;;;5021048;28;93847;-44
2022/01/31 00:34:38;;;;;;;;;;;0.10;81.20;;;;;;5019796;28;95476;-44
2022/01/31 00:37:04;;;;;;;;;;;0.10;81.50;;;;;;5021117;28;92165;-44
2022/01/31 00:39:33;;;;;;;;;;;0.10;81.50;;;;;;5023616;28;93935;-44
2022/01/31 00:41:59;;;;;;;;;;;0.10;81.70;;;;;;5020402;28;92207;-44
2022/01/31 00:44:37;;;;;;;;;;;0.10;81.60;;;;;;5020758;28;94021;-44
2022/01/31 00:47:15;;;;;;;;;;;0.10;81.50;;;;;;5020657;28;93021;-44
2022/01/31 00:49:42;;;;;;;;;;;0.10;81.50;;;;;;5020918;28;91974;-45
2022/01/31 00:52:07;;;;;;;;;;;0.10;81.20;;;;;;5021285;28;93829;-44
2022/01/31 00:54:33;;;;;;;;;;;0.10;81.10;;;;;;5020156;28;94602;-44
2022/01/31 00:56:58;;;;;;;;;;;0.10;81.10;;;;;;5020271;28;92305;-44
2022/01/31 00:59:24;;;;;;;;;;;0.10;81.00;;;;;;5020340;28;93714;-44
2022/01/31 01:01:50;;;;;;;;;;;0.10;81.10;;;;;;5023041;28;94627;-43
2022/01/31 01:04:15;;;;;;;;;;;0.10;81.20;;;;;;5020512;28;93795;-44
2022/01/31 01:06:41;;;;;;;;;;;0.10;81.10;;;;;;5020110;28;94046;-44
2022/01/31 01:09:07;;;;;;;;;;;0.00;81.00;;;;;;5020683;28;92140;-44
2022/01/31 01:11:33;;;;;;;;;;;0.10;81.30;;;;;;5020215;28;93914;-44
2022/01/31 01:13:59;;;;;;;;;;;0.10;81.10;;;;;;5019124;28;94264;-44
2022/01/31 01:16:24;;;;;;;;;;;0.10;81.00;;;;;;5020724;28;91408;-44
2022/01/31 01:18:50;;;;;;;;;;;0.10;81.40;;;;;;5020795;28;91874;-44
2022/01/31 01:21:15;;;;;;;;;;;0.10;81.60;;;;;;5019767;28;94733;-45
2022/01/31 01:23:41;;;;;;;;;;;0.10;81.60;;;;;;5022683;28;93267;-44
2022/01/31 01:26:06;;;;;;;;;;;0.10;81.50;;;;;;5019518;28;94559;-44
2022/01/31 01:28:32;;;;;;;;;;;0.10;81.50;;;;;;5020326;28;92208;-44
2022/01/31 01:30:57;;;;;;;;;;;0.10;81.50;;;;;;5020246;28;93712;-43
2022/01/31 01:33:24;;;;;;;;;;;0.00;81.40;;;;;;5019686;28;93695;-44
2022/01/31 01:35:51;;;;;;;;;;;0.10;81.30;;;;;;5020113;28;92143;-44
2022/01/31 01:38:18;;;;;;;;;;;0.10;81.10;;;;;;5020139;28;94016;-44
2022/01/31 01:40:45;;;;;;;;;;;0.10;80.90;;;;;;5019560;28;94396;-44
2022/01/31 01:43:11;;;;;;;;;;;0.10;80.90;;;;;;5020159;28;92016;-43
2022/01/31 01:45:38;;;;;;;;;;;0.10;80.80;;;;;;5023203;28;92002;-44
2022/01/31 01:48:07;;;;;;;;;;;0.10;80.80;;;;;;5019175;28;93086;-43
2022/01/31 01:50:36;;;;;;;;;;;0.10;80.80;;;;;;5020009;28;94638;-44
2022/01/31 01:53:02;;;;;;;;;;;0.10;80.80;;;;;;5019353;28;94919;-43
2022/01/31 01:55:28;;;;;;;;;;;0.10;81.00;;;;;;5019727;28;92208;-44
2022/01/31 01:57:55;;;;;;;;;;;0.10;81.00;;;;;;5019936;28;93654;-43
2022/01/31 02:00:25;;;;;;;;;;;0.10;81.10;;;;;;5019282;28;94479;-44
2022/01/31 02:02:51;;;;;;;;;;;0.10;81.10;;;;;;5019836;28;92003;-44
2022/01/31 02:05:17;;;;;;;;;;;0.10;81.00;;;;;;5020211;28;93584;-45
2022/01/31 02:07:43;;;;;;;;;;;0.10;81.10;;;;;;5022201;28;94739;-44
2022/01/31 02:10:09;;;;;;;;;;;0.10;81.20;;;;;;5019441;28;93741;-43
2022/01/31 02:12:41;;;;;;;;;;;0.10;81.40;;;;;;5018513;28;96281;-44
2022/01/31 02:15:08;;;;;;;;;;;0.10;81.40;;;;;;5019653;28;92192;-45
2022/01/31 02:17:33;;;;;;;;;;;0.10;81.30;;;;;;5019672;28;93353;-45
2022/01/31 02:19:59;;;;;;;;;;;0.00;81.10;;;;;;5019182;28;94810;-44
2022/01/31 02:22:24;;;;;;;;;;;0.10;80.90;;;;;;5018292;28;92179;-45
2022/01/31 02:24:50;;;;;;;;;;;0.10;80.80;;;;;;5021003;28;93923;-43
2022/01/31 02:27:23;;;;;;;;;;;0.00;80.80;;;;;;5022446;28;94627;-44
2022/01/31 02:29:48;;;;;;;;;;;0.10;80.90;;;;;;5026588;28;91241;-44
2022/01/31 02:32:15;;;;;;;;;;;0.10;80.90;;;;;;5022286;28;95230;-43
2022/01/31 02:34:41;;;;;;;;;;;0.10;81.00;;;;;;5022879;28;92154;-45
2022/01/31 02:37:10;;;;;;;;;;;0.10;80.90;;;;;;5022151;28;94111;-46
2022/01/31 02:39:35;;;;;;;;;;;0.10;80.70;;;;;;5022174;28;94444;-45
2022/01/31 02:42:01;;;;;;;;;;;0.10;80.70;;;;;;5022226;28;92198;-43
2022/01/31 02:44:26;;;;;;;;;;;0.10;80.70;;;;;;5022632;28;93717;-44
2022/01/31 02:46:54;;;;;;;;;;;0.10;80.90;;;;;;5020890;28;96204;-43
2022/01/31 02:49:23;;;;;;;;;;;0.10;80.80;;;;;;5025973;28;92205;-44
2022/01/31 02:51:53;;;;;;;;;;;0.10;80.80;;;;;;5021801;28;94787;-44
2022/01/31 02:54:18;;;;;;;;;;;0.10;80.80;;;;;;5022999;28;91490;-45
2022/01/31 02:56:44;;;;;;;;;;;0.10;80.90;;;;;;5022648;28;93381;-44
2022/01/31 02:59:09;;;;;;;;;;;0.10;80.90;;;;;;5022038;28;94804;-44
2022/01/31 03:01:36;;;;;;;;;;;0.00;81.00;;;;;;5021909;28;93195;-44
2022/01/31 03:04:01;;;;;;;;;;;0.10;80.80;;;;;;5022469;28;94338;-45
2022/01/31 03:06:27;;;;;;;;;;;0.00;80.70;;;;;;5021431;28;94346;-44
2022/01/31 03:08:52;;;;;;;;;;;0.00;80.70;;;;;;5022257;28;91928;-43
2022/01/31 03:11:18;;;;;;;;;;;0.00;80.60;;;;;;5024787;28;93850;-46
2022/01/31 03:13:43;;;;;;;;;;;0.10;80.60;;;;;;5022572;28;92220;-44
2022/01/31 03:16:09;;;;;;;;;;;0.10;80.60;;;;;;5022323;28;93990;-43
2022/01/31 03:18:34;;;;;;;;;;;0.10;80.70;;;;;;5022590;28;92336;-43
2022/01/31 03:21:00;;;;;;;;;;;0.10;80.90;;;;;;5022254;28;92150;-45
2022/01/31 03:23:25;;;;;;;;;;;0.10;81.00;;;;;;5022621;28;93573;-43
2022/01/31 03:25:51;;;;;;;;;;;0.10;81.10;;;;;;5020793;28;95274;-43
2022/01/31 03:28:17;;;;;;;;;;;0.10;81.10;;;;;;5022206;28;92326;-44
2022/01/31 03:30:42;;;;;;;;;;;0.10;81.10;;;;;;5022182;28;93836;-44
2022/01/31 03:33:08;;;;;;;;;;;0.10;81.10;;;;;;5024790;28;93480;-44
2022/01/31 03:35:34;;;;;;;;;;;0.10;81.10;;;;;;5021728;28;93910;-44
2022/01/31 03:37:59;;;;;;;;;;;0.10;81.00;;;;;;5020959;28;93620;-44
2022/01/31 03:40:25;;;;;;;;;;;0.10;81.00;;;;;;5022170;28;92282;-44
2022/01/31 03:42:50;;;;;;;;;;;0.10;80.90;;;;;;5022057;28;94101;-44
2022/01/31 03:45:16;;;;;;;;;;;0.10;80.90;;;;;;5021288;28;94668;-44
2022/01/31 03:47:45;;;;;;;;;;;0.10;80.90;;;;;;5021887;28;92015;-44
2022/01/31 03:50:12;;;;;;;;;;;0.00;80.70;;;;;;5021083;28;93833;-47
2022/01/31 03:52:37;;;;;;;;;;;0.00;80.70;;;;;;5021027;28;94540;-43
2022/01/31 03:55:03;;;;;;;;;;;0.00;80.70;;;;;;5024698;28;92181;-44
2022/01/31 03:57:29;;;;;;;;;;;0.00;80.70;;;;;;5021310;28;94563;-45
2022/01/31 03:59:54;;;;;;;;;;;0.10;80.80;;;;;;5021529;28;92130;-47
2022/01/31 04:02:20;;;;;;;;;;;0.10;80.80;;;;;;5021488;28;94075;-44
2022/01/31 04:04:45;;;;;;;;;;;0.00;80.80;;;;;;5019529;28;96692;-44
2022/01/31 04:07:11;;;;;;;;;;;0.10;80.80;;;;;;5021786;28;91176;-44
2022/01/31 04:09:36;;;;;;;;;;;0.00;81.40;;;;;;5021634;28;93254;-44
2022/01/31 04:12:02;;;;;;;;;;;0.00;80.80;;;;;;5021049;28;94683;-44
2022/01/31 04:14:27;;;;;;;;;;;0.00;80.80;;;;;;5020790;28;93122;-43
2022/01/31 04:16:55;;;;;;;;;;;0.10;80.90;;;;;;5023939;28;93963;-45
2022/01/31 04:19:21;;;;;;;;;;;0.10;80.80;;;;;;5021290;28;92061;-44
2022/01/31 04:21:46;;;;;;;;;;;0.00;80.80;;;;;;5021115;28;93403;-44
2022/01/31 04:24:19;;;;;;;;;;;0.00;80.70;;;;;;5021025;28;92588;-44
2022/01/31 04:26:55;;;;;;;;;;;0.00;80.80;;;;;;5021354;28;92095;-44
2022/01/31 04:29:20;;;;;;;;;;;0.00;80.80;;;;;;5020165;28;95503;-45
2022/01/31 04:31:49;;;;;;;;;;;0.00;80.70;;;;;;5021266;28;93784;-44
2022/01/31 04:34:15;;;;;;;;;;;0.10;80.70;;;;;;5020994;28;92004;-44
2022/01/31 04:36:40;;;;;;;;;;;0.00;80.60;;;;;;5023613;28;94006;-43
2022/01/31 04:39:06;;;;;;;;;;;0.00;80.50;;;;;;5020556;28;93026;-43
2022/01/31 04:41:32;;;;;;;;;;;0.00;80.50;;;;;;5020579;28;95238;-44
2022/01/31 04:44:03;;;;;;;;;;;0.10;80.60;;;;;;5020425;28;94602;-43
2022/01/31 04:46:30;;;;;;;;;;;0.00;80.60;;;;;;5020752;28;91978;-44
2022/01/31 04:48:55;;;;;;;;;;;0.00;80.70;;;;;;5019398;28;94475;-44
2022/01/31 04:51:21;;;;;;;;;;;0.00;80.60;;;;;;5018908;28;95870;-43
2022/01/31 04:53:46;;;;;;;;;;;0.00;80.60;;;;;;5021045;28;92227;-43
2022/01/31 04:56:12;;;;;;;;;;;0.00;80.60;;;;;;5021329;28;94049;-44
2022/01/31 04:58:39;;;;;;;;;;;0.00;80.60;;;;;;5023131;28;94603;-45
2022/01/31 05:01:05;;;;;;;;;;;0.00;80.50;;;;;;5020693;28;94171;-44
2022/01/31 05:03:31;;;;;;;;;;;0.00;80.50;;;;;;5019244;28;95357;-45
2022/01/31 05:05:56;;;;;;;;;;;0.00;80.60;;;;;;5020746;28;92159;-44
2022/01/31 05:08:26;;;;;;;;;;;0.00;80.60;;;;;;5020514;28;93894;-44
2022/01/31 05:10:52;;;;;;;;;;;0.00;80.60;;;;;;5020087;28;94387;-45
2022/01/31 05:13:17;;;;;;;;;;;0.00;80.50;;;;;;5020384;28;91901;-44
2022/01/31 05:15:43;;;;;;;;;;;0.00;80.50;;;;;;5020691;28;92591;-44
2022/01/31 05:18:09;;;;;;;;;;;0.00;80.50;;;;;;5019885;28;94385;-44
2022/01/31 05:20:35;;;;;;;;;;;0.00;80.40;;;;;;5024216;28;91400;-46
2022/01/31 05:23:00;;;;;;;;;;;0.00;80.40;;;;;;5019844;28;94997;-43
2022/01/31 05:25:26;;;;;;;;;;;0.00;80.50;;;;;;5020271;28;92204;-44
2022/01/31 05:27:51;;;;;;;;;;;0.00;80.50;;;;;;5019656;28;93681;-46
2022/01/31 05:30:17;;;;;;;;;;;0.00;80.50;;;;;;5019725;28;95022;-44
2022/01/31 05:32:43;;;;;;;;;;;0.00;80.50;;;;;;5020102;28;92108;-45
2022/01/31 05:35:09;;;;;;;;;;;0.00;80.50;;;;;;5020299;28;94157;-43
2022/01/31 05:37:35;;;;;;;;;;;0.00;80.40;;;;;;5019550;28;94895;-44
2022/01/31 05:40:02;;;;;;;;;;;0.00;80.50;;;;;;5019855;28;92126;-44
2022/01/31 05:42:27;;;;;;;;;;;0.00;80.40;;;;;;5022364;28;93695;-44
2022/01/31 05:44:53;;;;;;;;;;;0.00;80.50;;;;;;5020483;28;91461;-44
2022/01/31 05:47:19;;;;;;;;;;;0.00;80.50;;;;;;5020095;28;93793;-44
2022/01/31 05:49:45;;;;;;;;;;;0.00;80.40;;;;;;5019632;28;94739;-43
2022/01/31 05:52:11;;;;;;;;;;;0.00;80.40;;;;;;5019190;28;93130;-44
2022/01/31 05:54:38;;;;;;;;;;;0.00;80.40;;;;;;5019849;28;95219;-44
2022/01/31 05:57:04;;;;;;;;;;;0.00;80.40;;;;;;5019201;28;94399;-44
2022/01/31 05:59:29;;;;;;;;;;;0.00;80.40;;;;;;5021141;28;91920;-45
2022/01/31 06:01:57;;;;;;;;;;;0.00;80.30;;;;;;5023535;28;92829;-44
2022/01/31 06:04:22;;;;;;;;;;;0.00;80.40;;;;;;5025851;28;94746;-44
2022/01/31 06:06:48;;;;;;;;;;;0.00;80.30;;;;;;5023325;28;93970;-44
2022/01/31 06:09:14;;;;;;;;;;;0.00;80.30;;;;;;5023331;28;93885;-43
2022/01/31 06:11:39;;;;;;;;;;;0.00;80.30;;;;;;5023390;28;91925;-44
2022/01/31 06:14:08;;;;;;;;;;;0.00;80.30;;;;;;5023332;28;93837;-43
2022/01/31 06:16:33;;;;;;;;;;;0.00;80.30;;;;;;5022049;28;95304;-43
2022/01/31 06:18:59;;;;;;;;;;;0.00;80.30;;;;;;5023151;28;92158;-44
2022/01/31 06:21:25;;;;;;;;;;;0.00;80.30;;;;;;5023443;28;92151;-44
2022/01/31 06:23:50;;;;;;;;;;;0.00;80.40;;;;;;5022916;28;93134;-44
2022/01/31 06:26:16;;;;;;;;;;;0.00;80.40;;;;;;5026223;28;92244;-44
2022/01/31 06:28:41;;;;;;;;;;;0.00;80.30;;;;;;5022542;28;94439;-45
2022/01/31 06:31:07;;;;;;;;;;;0.00;80.40;;;;;;5022943;28;92160;-44
2022/01/31 06:33:32;;;;;;;;;;;0.00;80.30;;;;;;5023472;28;92273;-43
2022/01/31 06:35:58;;;;;;;;;;;0.00;80.30;;;;;;5022432;28;94582;-44
2022/01/31 06:38:24;;;;;;;;;;;0.00;80.30;;;;;;5023176;28;92149;-43
2022/01/31 06:40:50;;;;;;;;;;;0.10;80.30;;;;;;5021736;28;93650;-44
2022/01/31 06:43:15;;;;;;;;;;;0.00;80.30;;;;;;5022210;28;94226;-43
2022/01/31 06:45:41;;;;;;;;;;;0.00;80.30;;;;;;5025903;28;92288;-43
2022/01/31 06:48:06;;;;;;;;;;;0.00;80.40;;;;;;5022025;28;94640;-45
2022/01/31 06:50:32;;;;;;;;;;;0.10;80.50;;;;;;5022654;28;92145;-44
2022/01/31 06:52:59;;;;;;;;;;;0.00;80.50;;;;;;5022694;28;93333;-44
2022/01/31 06:55:25;;;;;;;;;;;0.00;80.50;;;;;;5022191;28;94383;-44
2022/01/31 06:57:51;;;;;;;;;;;0.10;80.70;;;;;;5023097;28;91482;-44
2022/01/31 07:00:18;;;;;;;;;;;0.10;80.60;;;;;;5022649;28;92884;-44
2022/01/31 07:02:47;;;;;;;;;;;0.10;80.60;;;;;;5021808;28;94730;-43
2022/01/31 07:05:14;;;;;;;;;;;0.10;80.50;;;;;;5022005;28;93160;-43
2022/01/31 07:07:40;;;;;;;;;;;0.10;80.50;;;;;;5025044;28;94754;-44
2022/01/31 07:10:06;;;;;;;;;;;0.10;80.50;;;;;;5022332;28;92140;-44
2022/01/31 07:12:37;;;;;;;;;;;0.10;80.60;;;;;;5021517;28;93760;-44
2022/01/31 07:15:04;;;;;;;;;;;0.10;80.50;;;;;;5021799;28;94458;-44
2022/01/31 07:17:30;;;;;;;;;;;0.10;80.60;;;;;;5022163;28;92204;-44
2022/01/31 07:19:56;;;;;;;;;;;0.10;80.50;;;;;;5022353;28;93827;-45
2022/01/31 07:22:29;;;;;;;;;;;0.10;80.40;;;;;;5022398;28;93942;-44
2022/01/31 07:25:03;;;;;;;;;;;0.10;80.30;;;;;;5022253;28;92055;-44
2022/01/31 07:27:29;;;;;;;;;;;0.10;80.30;;;;;;5022274;28;93830;-43
2022/01/31 07:29:54;;;;;;;;;;;0.10;80.30;;;;;;5023924;28;95408;-44
2022/01/31 07:32:20;;;;;;;;;;;0.10;80.40;;;;;;5021982;28;94757;-44
2022/01/31 07:34:46;;;;;;;;;;;0.20;80.40;;;;;;5021325;28;94963;-43
2022/01/31 07:37:12;;;;;;;;;;;0.20;80.30;;;;;;5022005;28;92077;-43
2022/01/31 07:39:38;;;;;;;;;;;0.20;80.30;;;;;;5022176;28;94107;-44
2022/01/31 07:42:04;;;;;;;;;;;0.20;80.20;;;;;;5021003;28;94690;-44
2022/01/31 07:44:29;;;;;;;;;;;0.20;80.20;;;;;;5021842;28;92326;-44
2022/01/31 07:46:55;;;;;;;;;;;0.20;80.20;;;;;;5022370;28;94152;-43
2022/01/31 07:49:22;;;;;;;;;;;0.20;80.20;;;;;;5021320;28;94220;-43
2022/01/31 07:51:47;;;;;;;;;;;0.20;80.20;;;;;;5024874;28;92149;-43
2022/01/31 07:54:13;;;;;;;;;;;0.20;80.20;;;;;;5020674;28;95497;-44
2022/01/31 07:56:38;;;;;;;;;;;0.20;80.10;;;;;;5021924;28;92231;-43
2022/01/31 07:59:04;;;;;;;;;;;0.20;80.10;;;;;;5021721;28;93896;-44
2022/01/31 08:01:29;;;;;;;;;;;0.30;80.20;;;;;;5021073;28;92827;-44
2022/01/31 08:03:55;;;;;;;;;;;0.20;80.00;;;;;;5021609;28;92165;-43
2022/01/31 08:06:21;;;;;;;;;;;0.20;79.90;;;;;;5021634;28;94208;-43
2022/01/31 08:08:46;;;;;;;;;;;0.30;79.90;;;;;;5021377;28;92935;-43
2022/01/31 08:11:14;;;;;;;;;;;0.30;79.90;;;;;;5022246;28;91347;-43
2022/01/31 08:13:39;;;;;;;;;;;0.30;79.70;;;;;;5024085;28;92883;-44
2022/01/31 08:18:34;;;;;;;;;;;0.30;80.30;;;;;;5021004;28;92923;-44
2022/01/31 08:21:00;;;;;;;;;;;0.30;79.60;;;;;;5021008;28;94712;-43
2022/01/31 08:23:25;;;;;;;;;;;0.30;79.70;;;;;;5021019;28;92153;-45
2022/01/31 08:25:51;;;;;;;;;;;0.30;79.70;;;;;;5021177;28;93817;-44
2022/01/31 08:28:18;;;;;;;;;;;0.30;79.90;;;;;;5020699;28;94553;-44
2022/01/31 08:30:58;;;;;;;;;;;0.30;79.90;;;;;;5021245;28;92229;-43
2022/01/31 08:33:39;;;;;;;;;;;0.30;80.20;;;;;;5021291;28;93809;-44
2022/01/31 08:36:06;;;;;;;;;;;0.30;80.30;;;;;;5024341;28;93513;-43
2022/01/31 08:38:33;;;;;;;;;;;0.30;80.40;;;;;;5021146;28;93083;-45
2022/01/31 08:40:59;;;;;;;;;;;0.30;80.50;;;;;;5020031;28;94521;-43
2022/01/31 08:43:25;;;;;;;;;;;0.30;80.50;;;;;;5020862;28;93064;-43
2022/01/31 08:45:53;;;;;;;;;;;0.30;80.50;;;;;;5020783;28;94744;-44
2022/01/31 08:48:19;;;;;;;;;;;0.30;80.30;;;;;;5020520;28;93146;-43
2022/01/31 08:50:44;;;;;;;;;;;0.30;80.50;;;;;;5020881;28;92130;-45
2022/01/31 08:53:10;;;;;;;;;;;0.30;80.30;;;;;;5020673;28;93757;-44
2022/01/31 08:55:36;;;;;;;;;;;0.40;80.30;;;;;;5023146;28;94411;-44
2022/01/31 08:58:02;;;;;;;;;;;0.40;80.20;;;;;;5020709;28;93803;-44
2022/01/31 09:00:34;;;;;;;;;;;0.30;80.20;;;;;;5020989;28;92733;-45
2022/01/31 09:03:22;;;;;;;;;;;0.30;80.10;;;;;;5020685;28;92024;-46
2022/01/31 09:05:48;;;;;;;;;;;0.40;80.20;;;;;;5020562;28;93747;-47
2022/01/31 09:08:13;;;;;;;;;;;0.40;80.30;;;;;;5019229;28;95181;-44
2022/01/31 09:10:40;;;;;;;;;;;0.40;80.30;;;;;;5020831;28;92132;-43
2022/01/31 09:13:06;;;;;;;;;;;0.40;80.30;;;;;;5020459;28;93878;-43
2022/01/31 09:15:31;;;;;;;;;;;0.40;80.30;;;;;;5019953;28;94715;-43
2022/01/31 09:17:57;;;;;;;;;;;0.40;80.10;;;;;;5023459;28;92158;-44
2022/01/31 09:20:22;;;;;;;;;;;0.40;80.30;;;;;;5019894;28;94827;-43
2022/01/31 09:22:48;;;;;;;;;;;0.40;80.50;;;;;;5020233;28;92185;-45
2022/01/31 09:25:14;;;;;;;;;;;0.40;80.60;;;;;;5021110;28;93797;-43
2022/01/31 09:27:41;;;;;;;;;;;0.40;80.60;;;;;;5019671;28;94798;-43
2022/01/31 09:30:07;;;;;;;;;;;0.40;80.60;;;;;;5020134;28;92089;-44
2022/01/31 09:32:32;;;;;;;;;;;0.40;80.50;;;;;;5019519;28;94617;-44
2022/01/31 09:34:58;;;;;;;;;;;0.40;80.40;;;;;;5018770;28;94475;-43
2022/01/31 09:37:24;;;;;;;;;;;0.40;80.60;;;;;;5020073;28;92175;-45
2022/01/31 09:39:50;;;;;;;;;;;0.50;80.50;;;;;;5022976;28;92965;-45
2022/01/31 09:42:25;;;;;;;;;;;0.50;80.50;;;;;;5019484;28;92237;-45
2022/01/31 09:45:17;;;;;;;;;;;0.40;80.50;;;;;;5020108;28;93552;-44
2022/01/31 09:50:21;;;;;;;;;;;0.50;80.40;;;;;;5020761;28;91142;-43
2022/01/31 09:52:46;;;;;;;;;;;0.50;80.40;;;;;;5020020;28;93089;-44
2022/01/31 09:55:12;;;;;;;;;;;0.50;80.40;;;;;;5019344;28;94523;-44
2022/01/31 09:57:38;;;;;;;;;;;0.60;80.30;;;;;;5019190;28;93186;-43
2022/01/31 10:00:04;;;;;;;;;;;0.60;80.30;;;;;;5020070;28;93176;-44
2022/01/31 10:02:30;;;;;;;;;;;0.60;80.40;;;;;;5022218;28;94573;-43
2022/01/31 10:04:55;;;;;;;;;;;0.60;80.40;;;;;;5019764;28;93020;-46
2022/01/31 10:07:21;;;;;;;;;;;0.60;80.50;;;;;;5019548;28;93167;-44
2022/01/31 10:09:48;;;;;;;;;;;0.60;80.50;;;;;;5019586;28;92225;-44
2022/01/31 10:17:38;;;;;;;;;;;0.60;80.70;;;;;;5019957;28;92005;-44
2022/01/31 10:20:08;;;;;;;;;;;0.70;80.80;;;;;;5019846;28;93797;-44
2022/01/31 10:22:35;;;;;;;;;;;0.70;80.80;;;;;;5018423;28;95398;-44
2022/01/31 10:25:02;;;;;;;;;;;0.70;80.70;;;;;;5022639;28;92100;-44
2022/01/31 10:27:29;;;;;;;;;;;0.70;80.70;;;;;;5019080;28;94388;-43
2022/01/31 10:29:56;;;;;;;;;;;0.70;80.80;;;;;;5019787;28;92184;-44
2022/01/31 10:32:33;;;;;;;;;;;0.70;80.70;;;;;;5019704;28;94073;-44
2022/01/31 10:35:01;;;;;;;;;;;0.70;80.80;;;;;;5019159;28;93595;-43
2022/01/31 10:37:29;;;;;;;;;;;0.70;81.00;;;;;;5019453;28;92154;-43
2022/01/31 10:45:41;;;;;;;;;;;0.70;81.60;;;;;;4979649;28;92204;-45
2022/01/31 10:53:24;;;;;;;;;;;0.70;81.60;;;;;;4983109;28;92499;-44
2022/01/31 10:55:54;;;;;;;;;;;0.80;81.50;;;;;;4982249;28;94822;-43
2022/01/31 10:58:19;;;;;;;;;;;0.80;81.40;;;;;;4982713;28;92018;-44
2022/01/31 11:00:45;;;;;;;;;;;0.80;81.30;;;;;;4982698;28;93550;-43
2022/01/31 11:03:28;;;;;;;;;;;0.80;81.30;;;;;;4982274;28;92914;-43
2022/01/31 11:05:54;;;;;;;;;;;0.80;81.30;;;;;;4983115;28;91399;-43
2022/01/31 11:08:20;;;;;;;;;;;0.80;81.30;;;;;;4985175;28;93220;-45
2022/01/31 11:10:46;;;;;;;;;;;0.80;81.40;;;;;;4982639;28;92148;-44
2022/01/31 11:13:12;;;;;;;;;;;0.80;81.50;;;;;;4981871;28;94065;-44
2022/01/31 11:15:37;;;;;;;;;;;0.90;81.40;;;;;;4981795;28;94336;-43
2022/01/31 11:18:06;;;;;;;;;;;0.90;81.40;;;;;;4982597;28;92030;-43
2022/01/31 11:20:31;;;;;;;;;;;0.90;81.20;;;;;;4982383;28;93736;-43
2022/01/31 11:22:58;;;;;;;;;;;0.90;81.40;;;;;;4981774;28;94411;-44
2022/01/31 11:25:28;;;;;;;;;;;0.90;81.50;;;;;;4982268;28;92104;-44
2022/01/31 11:27:57;;;;;;;;;;;0.90;81.50;;;;;;4982243;28;94140;-43
2022/01/31 11:30:23;;;;;;;;;;;0.90;81.40;;;;;;4984911;28;94318;-43
2022/01/31 11:32:48;;;;;;;;;;;1.00;81.50;;;;;;4982127;28;93221;-44
2022/01/31 11:35:14;;;;;;;;;;;1.00;81.70;;;;;;4981893;28;94513;-44
2022/01/31 11:37:40;;;;;;;;;;;1.00;81.40;;;;;;4981331;28;92888;-45
2022/01/31 11:40:09;;;;;;;;;;;1.00;81.50;;;;;;4982036;28;94829;-44
2022/01/31 11:42:34;;;;;;;;;;;1.00;81.50;;;;;;5013212;28;94570;-44
2022/01/31 11:45:07;;;;;;;;;;;1.00;81.50;;;;;;5021697;28;92144;-43
2022/01/31 11:47:35;;;;;;;;;;;1.00;81.40;;;;;;5021726;28;94281;-43
2022/01/31 11:50:03;;;;;;;;;;;1.00;81.80;;;;;;5021332;28;95128;-44
2022/01/31 11:52:33;;;;;;;;;;;1.00;81.80;;;;;;5024680;28;92209;-44
2022/01/31 11:54:59;;;;;;;;;;;1.00;81.80;;;;;;5021535;28;93740;-44
2022/01/31 11:57:32;;;;;;;;;;;1.10;81.80;;;;;;5020890;28;92169;-44
2022/01/31 11:59:59;;;;;;;;;;;1.10;82.00;;;;;;5021943;28;93862;-44
2022/01/31 12:02:25;;;;;;;;;;;1.10;81.90;;;;;;5020429;28;95603;-44
2022/01/31 12:04:52;;;;;;;;;;;1.10;81.90;;;;;;5021691;28;92176;-44
2022/01/31 12:07:40;;;;;;;;;;;1.10;81.80;;;;;;5021466;28;94311;-43
2022/01/31 12:10:07;;;;;;;;;;;1.10;82.00;;;;;;5052429;27;94484;-43
2022/01/31 12:13:26;;;;;;;;;;;1.10;82.00;;;;;;5021236;28;92151;-43
2022/01/31 12:21:59;;;;;;;;;;;1.20;82.20;;;;;;5021773;28;92359;-44
2022/01/31 12:23:35;;;;;;;;;;;1.20;82.10;;;;;;5020401;28;94256;-44
2022/01/31 12:26:02;;;;;;;;;;;1.20;82.20;;;;;;5021016;28;92174;-45
2022/01/31 12:28:35;;;;;;;;;;;1.20;82.10;;;;;;5020480;28;93867;-43
2022/01/31 12:31:33;;;;;;;;;;;1.20;82.30;;;;;;5020412;28;94820;-45
2022/01/31 12:33:58;;;;;;;;;;;1.20;82.10;;;;;;5030502;28;92117;-44
2022/01/31 12:36:36;;;;;;;;;;;1.20;82.10;;;;;;5053532;27;93550;-43
2022/01/31 12:39:21;;;;;;;;;;;1.30;82.20;;;;;;5023433;28;94836;-48
2022/01/31 12:41:47;;;;;;;;;;;1.30;82.20;;;;;;5019565;28;95434;-45
2022/01/31 12:44:31;;;;;;;;;;;1.30;82.20;;;;;;5020400;28;94650;-44
2022/01/31 12:47:17;;;;;;;;;;;1.30;82.30;;;;;;5021395;28;91641;-44
2022/01/31 12:49:43;;;;;;;;;;;1.30;82.30;;;;;;5021016;28;93146;-43
2022/01/31 12:52:10;;;;;;;;;;;1.30;82.20;;;;;;5020381;28;92776;-44
2022/01/31 12:54:37;;;;;;;;;;;1.30;82.20;;;;;;5020046;28;93041;-44
2022/01/31 12:57:04;;;;;;;;;;;1.30;82.30;;;;;;5020678;28;94628;-43
2022/01/31 12:59:29;;;;;;;;;;;1.30;82.10;;;;;;5020066;28;94561;-44
2022/01/31 13:01:55;;;;;;;;;;;1.40;82.30;;;;;;5023453;28;92066;-44
2022/01/31 13:04:24;;;;;;;;;;;1.30;82.20;;;;;;5019927;28;94630;-44
2022/01/31 13:06:50;;;;;;;;;;;1.40;82.20;;;;;;5020522;28;92149;-44
2022/01/31 13:09:19;;;;;;;;;;;1.40;82.30;;;;;;5019242;28;93644;-44
2022/01/31 13:11:45;;;;;;;;;;;1.40;82.20;;;;;;5020463;28;93692;-44
2022/01/31 13:14:13;;;;;;;;;;;1.40;82.30;;;;;;5020406;28;92193;-44
2022/01/31 13:16:40;;;;;;;;;;;1.40;82.20;;;;;;5020283;28;93879;-43
2022/01/31 13:19:24;;;;;;;;;;;1.40;82.30;;;;;;5019041;28;95271;-44
2022/01/31 13:21:51;;;;;;;;;;;1.50;82.40;;;;;;5023611;28;92008;-43
2022/01/31 13:24:17;;;;;;;;;;;1.50;82.50;;;;;;5019802;28;94905;-43
2022/01/31 13:26:50;;;;;;;;;;;1.50;82.40;;;;;;5020083;28;92144;-44
2022/01/31 13:29:28;;;;;;;;;;;1.50;82.50;;;;;;5020338;28;93827;-44
2022/01/31 13:31:54;;;;;;;;;;;1.50;82.40;;;;;;5019479;28;94716;-44
2022/01/31 13:34:43;;;;;;;;;;;1.50;82.50;;;;;;5020098;28;91952;-48
2022/01/31 13:37:27;;;;;;;;;;;1.50;82.40;;;;;;5020831;28;93688;-44
2022/01/31 13:39:53;;;;;;;;;;;1.50;82.40;;;;;;5019432;28;94544;-45
2022/01/31 13:42:24;;;;;;;;;;;1.50;82.50;;;;;;5019557;28;92198;-45
2022/01/31 13:44:52;;;;;;;;;;;1.50;82.40;;;;;;5021975;28;93089;-46
2022/01/31 13:47:27;;;;;;;;;;;1.60;82.50;;;;;;5019888;28;91986;-44
2022/01/31 13:49:53;;;;;;;;;;;1.60;82.50;;;;;;5020083;28;93355;-45
2022/01/31 13:52:18;;;;;;;;;;;1.60;82.30;;;;;;5019508;28;94359;-44
2022/01/31 13:54:44;;;;;;;;;;;1.60;82.40;;;;;;5019890;28;92131;-44
2022/01/31 13:57:11;;;;;;;;;;;1.60;82.40;;;;;;5019914;28;93779;-45
2022/01/31 13:59:37;;;;;;;;;;;1.60;82.40;;;;;;5019248;28;94871;-45
2022/01/31 14:02:06;;;;;;;;;;;1.60;82.40;;;;;;5020342;28;91420;-44
2022/01/31 14:04:32;;;;;;;;;;;1.60;82.30;;;;;;5019852;28;93079;-44
2022/01/31 14:06:58;;;;;;;;;;;1.60;82.30;;;;;;5022162;28;94355;-43
2022/01/31 14:09:30;;;;;;;;;;;1.70;82.30;;;;;;5019317;28;92748;-43
2022/01/31 14:11:55;;;;;;;;;;;1.60;82.30;;;;;;5019086;28;94650;-45
2022/01/31 14:14:21;;;;;;;;;;;1.70;82.40;;;;;;5019777;28;92031;-43
2022/01/31 14:16:47;;;;;;;;;;;1.70;82.30;;;;;;5019660;28;94193;-44
2022/01/31 14:19:14;;;;;;;;;;;1.70;82.40;;;;;;5019068;28;93856;-44
2022/01/31 14:21:41;;;;;;;;;;;1.70;82.30;;;;;;5022403;28;92134;-44
2022/01/31 14:24:07;;;;;;;;;;;1.70;82.20;;;;;;5023307;28;93931;-43
2022/01/31 14:26:32;;;;;;;;;;;1.70;82.10;;;;;;5023273;28;92483;-44
2022/01/31 14:28:58;;;;;;;;;;;1.70;82.00;;;;;;5026475;28;92145;-45
2022/01/31 14:31:28;;;;;;;;;;;1.70;82.00;;;;;;5022621;28;94415;-43
2022/01/31 14:33:53;;;;;;;;;;;1.70;81.70;;;;;;5022285;28;92998;-45
2022/01/31 14:36:21;;;;;;;;;;;1.70;81.70;;;;;;5022919;28;94678;-45
2022/01/31 14:39:00;;;;;;;;;;;1.80;81.80;;;;;;5022727;28;93695;-43
2022/01/31 14:41:58;;;;;;;;;;;1.80;81.60;;;;;;5022271;28;91914;-44
2022/01/31 14:49:37;;;;;;;;;;;1.80;81.30;;;;;;5020594;28;92023;-46
2022/01/31 14:52:04;;;;;;;;;;;1.80;81.40;;;;;;5025692;28;93992;-44
2022/01/31 14:54:30;;;;;;;;;;;1.80;81.40;;;;;;5022837;28;92112;-44
2022/01/31 14:56:55;;;;;;;;;;;1.80;81.90;;;;;;5022665;28;93310;-43
2022/01/31 14:59:21;;;;;;;;;;;1.80;81.40;;;;;;5021267;28;95024;-44
2022/01/31 15:01:46;;;;;;;;;;;1.80;81.40;;;;;;5022534;28;92158;-44
2022/01/31 15:04:16;;;;;;;;;;;1.80;81.30;;;;;;5022958;28;93803;-44